Time;durP1;ratioP1;P1;durP2;ratioP2;P2;SDS_P1;SDS_P2;PMS_P1;PMS_P2;Temp;Humidity;BMP_temperature;BMP_pressure;BME280_temperature;BME280_humidity;BME280_pressure;Samples;Min_cycle;Max_cycle;Signal;HPM_P1;HPM_P2
2023/09/26 00:00:21;;;;;;;22.17;5.55;;;;;;;20.92;100.00;101331.38;5074733;28;20032;-76
2023/09/26 00:02:51;;;;;;;19.75;5.60;;;;;;;20.93;100.00;101326.13;5074288;28;20078;-75
2023/09/26 00:05:18;;;;;;;25.33;5.68;;;;;;;20.75;100.00;101319.25;5071613;28;20033;-76
2023/09/26 00:07:44;;;;;;;20.80;5.85;;;;;;;20.96;100.00;101351.81;5074683;28;20517;-76
2023/09/26 00:10:12;;;;;;;20.90;5.72;;;;;;;20.91;100.00;101361.56;5074601;28;20040;-77
2023/09/26 00:12:37;;;;;;;24.98;5.88;;;;;;;21.07;100.00;101403.94;5073964;28;20028;-76
2023/09/26 00:15:04;;;;;;;19.50;5.40;;;;;;;20.86;100.00;101311.81;5074119;28;20115;-77
2023/09/26 00:17:29;;;;;;;22.70;5.70;;;;;;;21.36;100.00;101410.25;5074492;28;20024;-75
2023/09/26 00:19:55;;;;;;;25.55;6.80;;;;;;;20.66;100.00;101332.63;5074532;28;20021;-77
2023/09/26 00:22:20;;;;;;;17.35;5.88;;;;;;;21.25;100.00;101410.75;5074918;28;20028;-76
2023/09/26 00:24:46;;;;;;;15.50;6.38;;;;;;;21.19;100.00;101415.41;5074684;28;20119;-78
2023/09/26 00:27:12;;;;;;;19.52;6.20;;;;;;;20.72;100.00;101366.78;5056613;28;20032;-78
2023/09/26 00:29:37;;;;;;;24.73;6.43;;;;;;;20.71;100.00;101422.00;5073940;28;20060;-79
2023/09/26 00:32:03;;;;;;;18.52;6.38;;;;;;;20.83;100.00;101435.25;5074396;28;20048;-77
2023/09/26 00:34:28;;;;;;;21.40;6.07;;;;;;;20.78;100.00;101484.56;5076941;28;20032;-80
2023/09/26 00:36:55;;;;;;;19.83;6.78;;;;;;;20.64;100.00;101456.78;5080958;28;20033;-80
2023/09/26 00:39:21;;;;;;;24.45;6.30;;;;;;;20.84;100.00;101540.38;5075510;28;20487;-76
2023/09/26 00:41:46;;;;;;;28.35;6.45;;;;;;;21.00;100.00;101569.78;5074341;28;20110;-77
2023/09/26 00:44:12;;;;;;;21.25;6.07;;;;;;;20.87;100.00;101590.19;5074122;28;20513;-80
2023/09/26 00:46:38;;;;;;;20.65;5.88;;;;;;;20.69;100.00;101572.91;5056003;28;20041;-77
2023/09/26 00:49:04;;;;;;;23.60;6.15;;;;;;;20.93;100.00;101640.81;5074368;28;20033;-76
2023/09/26 00:51:32;;;;;;;23.30;6.82;;;;;;;20.51;100.00;101609.91;5074199;28;20031;-72
2023/09/26 00:53:58;;;;;;;19.35;6.15;;;;;;;20.54;100.00;101630.47;5056168;28;20117;-77
2023/09/26 00:56:24;;;;;;;23.73;6.30;;;;;;;20.56;100.00;101644.97;5073503;28;20054;-75
2023/09/26 00:58:51;;;;;;;16.88;6.15;;;;;;;21.15;100.00;101714.88;5073443;28;20036;-78
2023/09/26 01:01:19;;;;;;;19.10;6.00;;;;;;;20.50;100.00;101650.41;5073794;28;20031;-77
2023/09/26 01:03:45;;;;;;;19.48;6.32;;;;;;;20.58;100.00;101681.94;5073311;28;20115;-78
2023/09/26 01:06:11;;;;;;;19.55;6.53;;;;;;;20.84;100.00;101763.59;5073133;28;20030;-78
2023/09/26 01:08:37;;;;;;;17.42;6.03;;;;;;;20.92;100.00;101771.06;5073341;28;20119;-79
2023/09/26 01:11:03;;;;;;;17.98;6.05;;;;;;;20.53;100.00;101755.41;5055839;28;20028;-77
2023/09/26 01:13:28;;;;;;;20.27;6.45;;;;;;;20.81;100.00;101812.00;5073764;28;20130;-77
2023/09/26 01:15:54;;;;;;;22.20;6.97;;;;;;;20.72;100.00;101821.81;5073366;28;20021;-81
2023/09/26 01:18:23;;;;;;;16.75;6.32;;;;;;;20.35;100.00;101825.91;5055297;28;20062;-79
2023/09/26 01:20:49;;;;;;;15.70;5.88;;;;;;;20.82;100.00;101943.00;5073073;28;20037;-80
2023/09/26 01:23:16;;;;;;;19.08;6.28;;;;;;;20.36;100.00;101908.53;5072827;28;20037;-78
2023/09/26 01:25:42;;;;;;;17.33;6.10;;;;;;;20.85;100.00;102047.19;5072819;28;20050;-79
2023/09/26 01:28:09;;;;;;;17.02;6.30;;;;;;;20.43;100.00;102009.97;5073223;28;20020;-78
2023/09/26 01:30:37;;;;;;;19.95;6.60;;;;;;;20.43;100.00;102048.72;5073502;28;20032;-77
2023/09/26 01:33:04;;;;;;;17.15;6.78;;;;;;;20.26;100.00;102088.09;5072996;28;20063;-78
2023/09/26 01:35:29;;;;;;;19.73;6.72;;;;;;;20.34;100.00;102108.50;5073009;28;20547;-77
2023/09/26 01:37:55;;;;;;;15.57;6.55;;;;;;;20.82;100.00;102233.50;5072603;28;20064;-78
2023/09/26 01:40:20;;;;;;;22.17;6.90;;;;;;;20.39;100.00;102243.56;5072049;28;20107;-80
2023/09/26 01:42:46;;;;;;;20.52;6.50;;;;;;;20.60;100.00;102370.41;5054598;28;20473;-76
2023/09/26 01:45:11;;;;;;;15.45;6.45;;;;;;;20.79;100.00;102442.25;5072637;28;20025;-79
2023/09/26 01:47:48;;;;;;;17.80;7.05;;;;;;;20.89;100.00;102531.63;5072698;28;20037;-79
2023/09/26 01:50:15;;;;;;;17.38;7.40;;;;;;;20.35;100.00;102529.72;5073064;28;20107;-80
2023/09/26 01:52:41;;;;;;;17.80;6.93;;;;;;;20.37;100.00;102568.44;5072759;28;20036;-78
2023/09/26 01:55:08;;;;;;;16.42;7.15;;;;;;;20.86;100.00;102707.63;5073024;28;20059;-72
2023/09/26 01:57:33;;;;;;;17.58;7.07;;;;;;;20.45;100.00;102758.66;5072884;28;20033;-78
2023/09/26 02:00:11;;;;;;;20.23;8.15;;;;;;;20.07;100.00;102726.78;5072830;28;20032;-79
2023/09/26 02:02:39;;;;;;;22.08;7.72;;;;;;;20.45;100.00;102802.59;5054938;28;20024;-72
2023/09/26 02:05:09;;;;;;;27.45;8.50;;;;;;;19.71;100.00;102695.75;5072278;28;20032;-76
2023/09/26 02:07:34;;;;;;;21.92;7.88;;;;;;;20.16;100.00;102670.63;5076558;28;20032;-77
2023/09/26 02:10:00;;;;;;;24.20;8.55;;;;;;;20.27;100.00;102709.97;5085020;28;20059;-80
2023/09/26 02:12:25;;;;;;;27.38;8.82;;;;;;;20.27;100.00;102730.66;5078721;28;20364;-79
2023/09/26 02:14:51;;;;;;;20.70;8.32;;;;;;;20.21;100.00;102720.47;5072542;28;20072;-79
2023/09/26 02:17:16;;;;;;;20.77;8.63;;;;;;;20.03;100.00;102676.09;5054098;28;20044;-78
2023/09/26 02:19:42;;;;;;;24.40;8.40;;;;;;;19.91;100.00;102692.72;5072179;28;20025;-77
2023/09/26 02:22:08;;;;;;;22.77;8.38;;;;;;;19.84;100.00;103006.25;5072193;28;20056;-78
2023/09/26 02:24:33;;;;;;;28.00;7.60;;;;;;;20.09;100.00;102997.19;5072476;28;20111;-78
2023/09/26 02:26:59;;;;;;;20.05;7.03;;;;;;;20.15;100.00;103051.34;5071992;28;20099;-79
2023/09/26 02:29:27;;;;;;;15.70;6.72;;;;;;;20.01;100.00;103086.03;5072958;28;20024;-81
2023/09/26 02:31:52;;;;;;;21.02;6.93;;;;;;;20.41;100.00;103199.09;5071974;28;20052;-80
2023/09/26 02:34:19;;;;;;;19.60;6.95;;;;;;;20.05;100.00;103191.91;5054711;28;20040;-78
2023/09/26 02:36:44;;;;;;;22.73;6.85;;;;;;;19.94;100.00;103720.88;5071344;28;20032;-79
2023/09/26 02:39:10;;;;;;;21.70;6.95;;;;;;;20.09;100.00;103784.50;5073338;28;20033;-74
2023/09/26 02:41:36;;;;;;;19.98;7.53;;;;;;;20.64;100.00;103907.41;5076890;28;20032;-79
2023/09/26 02:44:03;;;;;;;17.85;7.00;;;;;;;20.38;100.00;103873.94;5077061;28;20109;-79
2023/09/26 02:46:29;;;;;;;23.35;6.70;;;;;;;20.13;100.00;103880.09;5076714;28;20115;-81
2023/09/26 02:48:54;;;;;;;19.88;7.43;;;;;;;20.27;100.00;103922.28;5076762;28;20048;-80
2023/09/26 02:51:19;;;;;;;18.65;7.00;;;;;;;19.81;100.00;103900.03;5076517;28;20037;-79
2023/09/26 02:53:45;;;;;;;20.48;6.82;;;;;;;20.11;100.00;103982.63;5075920;28;20033;-81
2023/09/26 02:56:11;;;;;;;20.45;6.72;;;;;;;20.29;100.00;104044.66;5075993;28;20032;-73
2023/09/26 02:58:36;;;;;;;17.00;6.97;;;;;;;20.15;100.00;104056.72;5058231;28;20025;-80
2023/09/26 03:01:03;;;;;;;20.40;6.88;;;;;;;20.00;100.00;104054.19;5075638;28;20035;-80
2023/09/26 03:03:29;;;;;;;20.30;6.47;;;;;;;20.12;100.00;104213.56;5075683;28;20491;-75
2023/09/26 03:05:55;;;;;;;22.90;7.18;;;;;;;20.31;100.00;104260.13;5075887;28;20059;-80
2023/09/26 03:08:20;;;;;;;17.13;6.75;;;;;;;20.02;100.00;104235.09;5076316;28;20040;-82
2023/09/26 03:10:46;;;;;;;14.75;6.50;;;;;;;20.32;100.00;104302.38;5076631;28;20021;-81
2023/09/26 03:13:11;;;;;;;22.30;7.03;;;;;;;20.17;100.00;104292.81;5076351;28;20031;-82
2023/09/26 03:15:37;;;;;;;14.30;6.72;;;;;;;19.85;100.00;104259.16;5057890;28;20046;-79
2023/09/26 03:18:02;;;;;;;19.90;6.63;;;;;;;20.05;100.00;104305.72;5075697;28;20089;-79
2023/09/26 03:20:28;;;;;;;18.48;6.63;;;;;;;20.52;100.00;104210.97;5076015;28;20020;-82
2023/09/26 03:22:54;;;;;;;20.20;6.57;;;;;;;20.13;100.00;104155.81;5076801;28;20039;-82
2023/09/26 03:25:19;;;;;;;19.00;6.95;;;;;;;20.31;100.00;104197.19;5076282;28;20028;-78
2023/09/26 03:27:46;;;;;;;17.08;6.53;;;;;;;20.23;100.00;104225.66;5076068;28;20055;-77
2023/09/26 03:30:15;;;;;;;19.42;6.28;;;;;;;20.04;100.00;104208.38;5074739;28;20119;-77
2023/09/26 03:32:40;;;;;;;25.98;8.00;;;;;;;20.12;100.00;104237.69;5075209;28;20123;-79
2023/09/26 03:35:06;;;;;;;25.77;8.98;;;;;;;20.16;100.00;104259.22;5087875;28;20111;-80
2023/09/26 03:37:32;;;;;;;21.00;9.90;;;;;;;19.96;100.00;104212.69;5095488;28;20068;-80
2023/09/26 03:39:58;;;;;;;25.48;10.40;;;;;;;20.01;100.00;104210.94;5095542;28;20503;-80
2023/09/26 03:42:23;;;;;;;26.42;10.35;;;;;;;20.07;100.00;104220.41;5095221;28;20020;-77
2023/09/26 03:44:49;;;;;;;28.30;11.43;;;;;;;20.14;100.00;104235.97;5094993;28;20055;-80
2023/09/26 03:47:14;;;;;;;28.92;11.32;;;;;;;20.17;100.00;104223.03;5093693;28;20024;-72
2023/09/26 03:49:39;;;;;;;24.52;11.45;;;;;;;19.99;100.00;104166.16;5071223;28;20040;-79
2023/09/26 03:52:05;;;;;;;30.98;11.50;;;;;;;19.74;100.00;104141.16;5094885;28;20032;-78
2023/09/26 03:54:31;;;;;;;37.67;12.65;;;;;;;19.47;100.00;104118.75;5094780;28;20032;-78
2023/09/26 03:56:56;;;;;;;35.38;11.82;;;;;;;19.71;100.00;104151.47;5076393;28;20040;-76
2023/09/26 03:59:21;;;;;;;31.08;12.07;;;;;;;19.75;100.00;104197.13;5088255;28;20035;-76
2023/09/26 04:01:47;;;;;;;28.17;11.90;;;;;;;19.91;100.00;104257.47;5061778;28;20032;-76
2023/09/26 04:04:13;;;;;;;25.77;12.43;;;;;;;19.69;100.00;104230.69;5093414;28;20032;-79
2023/09/26 04:06:41;;;;;;;30.40;12.10;;;;;;;19.76;100.00;104284.13;5094621;28;20101;-77
2023/09/26 04:09:07;;;;;;;27.02;11.65;;;;;;;19.69;100.00;104297.84;5077477;28;20434;-79
2023/09/26 04:11:32;;;;;;;27.45;11.13;;;;;;;19.99;100.00;104352.22;5097601;28;20029;-78
2023/09/26 04:13:58;;;;;;;26.45;10.48;;;;;;;21.01;100.00;104405.03;5095419;28;20028;-75
2023/09/26 04:16:23;;;;;;;26.83;11.95;;;;;;;20.26;100.00;104284.25;5094291;28;20028;-79
2023/09/26 04:18:48;;;;;;;32.45;12.18;;;;;;;19.85;100.00;104220.41;5075588;28;20024;-74
2023/09/26 04:21:14;;;;;;;26.65;12.48;;;;;;;19.77;100.00;104252.25;5093204;28;20028;-75
2023/09/26 04:23:40;;;;;;;24.58;11.50;;;;;;;19.60;100.00;104239.31;5083670;28;20422;-74
2023/09/26 04:26:14;;;;;;;27.55;12.18;;;;;;;20.12;100.00;104346.25;5092967;28;20024;-73
2023/09/26 04:28:44;;;;;;;25.70;11.75;;;;;;;19.95;100.00;104342.75;5093018;28;20028;-73
2023/09/26 04:31:17;;;;;;;26.30;11.77;;;;;;;19.96;100.00;104343.59;5091597;28;20121;-74
2023/09/26 04:33:47;;;;;;;30.17;13.38;;;;;;;20.15;100.00;104373.81;5093548;28;20534;-74
2023/09/26 04:36:13;;;;;;;33.80;11.67;;;;;;;20.37;100.00;104404.94;5084652;28;20456;-73
2023/09/26 04:38:39;;;;;;;27.23;10.13;;;;;;;20.59;100.00;104414.47;5072417;28;20032;-73
2023/09/26 04:41:05;;;;;;;28.58;8.85;;;;;;;21.03;100.00;104414.56;5072305;28;20101;-74
2023/09/26 04:43:31;;;;;;;28.33;8.95;;;;;;;20.25;100.00;104272.19;5072233;28;20079;-72
2023/09/26 04:45:57;;;;;;;24.65;7.53;;;;;;;20.66;100.00;104278.22;5074879;28;20137;-75
2023/09/26 04:48:22;;;;;;;23.17;7.88;;;;;;;20.37;100.00;104192.03;5090465;28;20070;-73
2023/09/26 04:50:48;;;;;;;24.45;7.85;;;;;;;20.40;100.00;104166.19;5092627;28;20097;-73
2023/09/26 04:53:14;;;;;;;22.58;8.40;;;;;;;20.54;100.00;104144.56;5092127;28;20021;-73
2023/09/26 04:55:39;;;;;;;23.27;7.65;;;;;;;20.88;100.00;104145.31;5091959;28;20032;-72
2023/09/26 04:58:05;;;;;;;22.23;7.47;;;;;;;20.60;100.00;104076.47;5089923;28;20089;-75
2023/09/26 05:00:31;;;;;;;20.38;7.00;;;;;;;20.90;100.00;104096.19;5091859;28;20077;-72
2023/09/26 05:02:57;;;;;;;17.83;6.32;;;;;;;20.89;100.00;104073.72;5099114;28;20031;-77
2023/09/26 05:05:24;;;;;;;17.60;6.45;;;;;;;21.21;100.00;104064.97;5054553;28;20090;-76
2023/09/26 05:07:50;;;;;;;19.83;6.78;;;;;;;21.06;100.00;104008.09;5072709;28;20024;-77
2023/09/26 05:10:15;;;;;;;23.02;6.80;;;;;;;20.84;100.00;103928.00;5072825;28;20392;-79
2023/09/26 05:12:41;;;;;;;21.20;6.68;;;;;;;21.19;100.00;103928.59;5082067;28;20480;-83
2023/09/26 05:15:15;;;;;;;19.45;6.68;;;;;;;21.09;100.00;103819.09;5092834;28;20036;-76
2023/09/26 05:17:48;;;;;;;16.35;6.20;;;;;;;21.43;100.00;103768.63;5074606;28;20040;-75
2023/09/26 05:20:15;;;;;;;19.35;6.55;;;;;;;20.97;100.00;103555.19;5053869;28;20032;-74
2023/09/26 05:22:42;;;;;;;21.38;6.55;;;;;;;21.12;100.00;103347.91;5087612;28;20033;-74
2023/09/26 05:25:08;;;;;;;18.58;6.10;;;;;;;21.51;100.00;103362.72;5087583;28;20510;-72
2023/09/26 05:27:34;;;;;;;19.65;6.55;;;;;;;21.29;100.00;103360.59;5089078;28;20512;-72
2023/09/26 05:30:00;;;;;;;15.75;6.22;;;;;;;21.57;100.00;103353.97;5071493;28;20037;-73
2023/09/26 05:32:25;;;;;;;24.45;6.45;;;;;;;21.72;100.00;103350.25;5067439;28;20075;-73
2023/09/26 05:34:51;;;;;;;19.83;5.93;;;;;;;21.71;100.00;103307.91;5070292;28;20032;-70
2023/09/26 05:37:16;;;;;;;18.42;6.43;;;;;;;21.21;100.00;102922.38;5071220;28;20154;-73
2023/09/26 05:39:42;;;;;;;22.75;6.95;;;;;;;21.55;100.00;102903.34;5071171;28;20024;-74
2023/09/26 05:42:10;;;;;;;19.42;6.30;;;;;;;22.02;100.00;102940.09;5069872;28;20057;-73
2023/09/26 05:44:35;;;;;;;16.35;6.40;;;;;;;21.86;100.00;102911.16;5071278;28;20457;-75
2023/09/26 05:47:01;;;;;;;20.73;6.80;;;;;;;22.05;100.00;102906.28;5070404;28;20032;-74
2023/09/26 05:49:26;;;;;;;20.13;6.38;;;;;;;22.08;100.00;102883.75;5072433;28;20060;-75
2023/09/26 05:51:52;;;;;;;15.13;6.78;;;;;;;21.91;100.00;102826.34;5071735;28;20089;-75
2023/09/26 05:54:17;;;;;;;20.33;6.45;;;;;;;22.24;100.00;102858.22;5071866;28;20047;-75
2023/09/26 05:56:44;;;;;;;19.50;6.03;;;;;;;21.97;100.00;102779.53;5070460;28;20033;-77
2023/09/26 05:59:10;;;;;;;25.30;6.22;;;;;;;22.56;100.00;102824.34;5071868;28;20036;-74
2023/09/26 06:01:35;;;;;;;19.63;6.50;;;;;;;22.50;100.00;102798.63;5071144;28;20035;-74
2023/09/26 06:04:00;;;;;;;21.40;5.93;;;;;;;22.48;100.00;102725.19;5071997;28;20398;-75
2023/09/26 06:06:26;;;;;;;20.73;5.78;;;;;;;23.14;100.00;102766.16;5071636;28;20078;-73
2023/09/26 06:08:51;;;;;;;17.42;6.13;;;;;;;23.18;100.00;102680.31;5070656;28;20028;-75
2023/09/26 06:11:17;;;;;;;19.48;6.20;;;;;;;23.31;100.00;102597.63;5071455;28;20550;-75
2023/09/26 06:13:44;;;;;;;18.20;6.28;;;;;;;23.14;100.00;102512.56;5071269;28;20072;-74
2023/09/26 06:16:10;;;;;;;22.98;6.80;;;;;;;23.63;100.00;102495.03;5072032;28;20032;-75
2023/09/26 06:18:35;;;;;;;20.13;6.57;;;;;;;24.18;100.00;102459.72;5072019;28;20096;-75
2023/09/26 06:21:05;;;;;;;19.40;6.70;;;;;;;23.91;100.00;102395.00;5070835;28;20411;-75
2023/09/26 06:23:32;;;;;;;16.75;6.28;;;;;;;23.85;100.00;102330.28;5071413;28;20047;-75
2023/09/26 06:25:58;;;;;;;17.77;6.03;;;;;;;23.12;100.00;102205.44;5071803;28;20028;-74
2023/09/26 06:28:24;;;;;;;17.45;6.00;;;;;;;23.05;100.00;102211.81;5071702;28;20054;-75
2023/09/26 06:30:49;;;;;;;21.00;6.50;;;;;;;23.67;100.00;102242.78;5071703;28;20123;-76
2023/09/26 06:33:16;;;;;;;18.52;6.18;;;;;;;23.52;100.00;102160.34;5070228;28;20060;-73
2023/09/26 06:35:41;;;;;;;15.60;6.15;;;;;;;23.64;100.00;102180.56;5071256;28;20032;-75
2023/09/26 06:38:07;;;;;;;21.50;6.35;;;;;;;24.21;100.00;102173.50;5071173;28;20064;-75
2023/09/26 06:40:32;;;;;;;15.60;6.10;;;;;;;24.52;100.00;102132.03;5071159;28;20441;-76
2023/09/26 06:43:00;;;;;;;22.17;6.30;;;;;;;24.89;100.00;102044.16;5070780;28;20041;-75
2023/09/26 06:45:27;;;;;;;17.27;6.18;;;;;;;25.50;100.00;101965.19;5071526;28;20033;-74
2023/09/26 06:47:53;;;;;;;17.88;5.70;;;;;;;24.55;100.00;101804.88;5071300;28;20144;-73
2023/09/26 06:50:18;;;;;;;20.15;5.93;;;;;;;25.37;100.00;101849.56;5071029;28;20494;-74
2023/09/26 06:52:44;;;;;;;15.25;5.65;;;;;;;25.35;100.00;101755.91;5071064;28;20047;-72
2023/09/26 06:55:12;;;;;;;14.95;5.53;;;;;;;25.20;100.00;101702.13;5070434;28;20388;-74
2023/09/26 06:57:38;;;;;;;17.23;5.88;;;;;;;25.30;100.00;101622.47;5072697;28;20032;-74
2023/09/26 07:00:05;;;;;;;19.63;5.53;;;;;;;25.70;100.00;101650.31;5068970;28;20024;-75
2023/09/26 07:02:31;;;;;;;14.52;5.80;;;;;;;25.31;100.00;101569.47;5063079;28;20044;-75
2023/09/26 07:04:57;;;;;;;13.82;5.25;;;;;;;26.09;100.00;101586.94;5085091;28;20024;-76
2023/09/26 07:07:23;;;;;;;20.58;5.78;;;;;;;25.55;100.00;101470.66;5070071;28;20128;-72
2023/09/26 07:09:48;;;;;;;18.88;5.47;;;;;;;25.94;100.00;101454.97;5069923;28;20028;-74
2023/09/26 07:12:14;;;;;;;21.08;6.03;;;;;;;26.10;100.00;101402.63;5091339;28;20028;-75
2023/09/26 07:14:40;;;;;;;17.77;6.15;;;;;;;25.86;100.00;101409.47;5091496;28;20036;-71
2023/09/26 07:17:09;;;;;;;16.58;5.00;;;;;;;26.60;100.00;101392.06;5091490;28;20090;-69
2023/09/26 07:19:34;;;;;;;19.48;5.90;;;;;;;26.16;100.00;101334.38;5091436;28;20021;-74
2023/09/26 07:21:59;;;;;;;22.70;5.40;;;;;;;26.09;100.00;101336.56;5090818;28;20024;-72
2023/09/26 07:24:25;;;;;;;16.83;5.30;;;;;;;26.52;100.00;101331.75;5090794;28;20109;-75
2023/09/26 07:26:51;;;;;;;25.13;5.90;;;;;;;26.88;100.00;101315.19;5092976;28;20046;-77
2023/09/26 07:29:17;;;;;;;17.52;5.60;;;;;;;25.93;100.00;101289.03;5094764;28;20073;-75
2023/09/26 07:31:42;;;;;;;18.60;5.50;;;;;;;25.69;100.00;101242.06;5095368;28;20066;-78
2023/09/26 07:34:08;;;;;;;16.20;5.45;;;;;;;26.01;100.00;101247.59;5114231;28;20054;-76
2023/09/26 07:36:34;;;;;;;14.88;6.05;;;;;;;26.00;100.00;101219.03;5115079;28;20049;-73
2023/09/26 07:38:59;;;;;;;26.77;6.97;;;;;;;26.73;100.00;101241.44;5114781;28;20031;-74
2023/09/26 07:41:25;;;;;;;21.10;5.65;;;;;;;26.15;100.00;101194.47;5115215;28;20091;-77
2023/09/26 07:43:50;;;;;;;27.10;7.53;;;;;;;26.34;100.00;101176.53;5084813;28;20024;-76
2023/09/26 07:46:16;;;;;;;24.77;6.95;;;;;;;26.76;100.00;101199.44;5074735;28;20453;-77
2023/09/26 07:48:42;;;;;;;19.17;6.57;;;;;;;26.91;100.00;101193.06;5074691;28;20020;-78
2023/09/26 07:51:09;;;;;;;20.45;6.57;;;;;;;26.79;100.00;101107.00;5075826;28;20478;-77
2023/09/26 07:53:35;;;;;;;16.20;5.65;;;;;;;26.37;100.00;101158.88;5074657;28;20039;-74
2023/09/26 07:56:01;;;;;;;17.65;6.00;;;;;;;26.56;100.00;101093.09;5076019;28;20091;-77
2023/09/26 07:58:28;;;;;;;18.75;5.57;;;;;;;27.26;100.00;101135.44;5075139;28;20490;-79
2023/09/26 08:00:54;;;;;;;14.00;5.20;;;;;;;27.12;100.00;101128.72;5074760;28;20036;-76
2023/09/26 08:03:21;;;;;;;16.60;5.22;;;;;;;26.82;100.00;101112.00;5075229;28;20028;-76
2023/09/26 08:05:46;;;;;;;12.38;4.72;;;;;;;27.09;100.00;101091.56;5056330;28;20107;-76
2023/09/26 08:08:12;;;;;;;15.93;5.80;;;;;;;27.55;100.00;101068.69;5074183;28;20028;-79
2023/09/26 08:10:38;;;;;;;13.95;5.60;;;;;;;27.08;100.00;101024.59;5074519;28;20028;-80
2023/09/26 08:13:05;;;;;;;16.00;5.53;;;;;;;27.11;100.00;101064.38;5074509;28;20110;-80
2023/09/26 08:15:31;;;;;;;12.93;6.00;;;;;;;27.10;100.00;100946.94;5072873;28;20028;-77
2023/09/26 08:17:57;;;;;;;16.85;6.18;;;;;;;27.14;100.00;100996.22;5073954;28;20032;-77
2023/09/26 08:20:24;;;;;;;17.40;6.35;;;;;;;27.29;100.00;101052.47;5073884;28;20785;-75
2023/09/26 08:22:50;;;;;;;14.27;6.13;;;;;;;27.43;100.00;100983.44;5075293;28;20035;-76
2023/09/26 08:25:15;;;;;;;12.55;5.63;;;;;;;26.80;100.00;101005.06;5075632;28;20028;-74
2023/09/26 08:27:41;;;;;;;16.23;6.13;;;;;;;27.42;100.00;100953.84;5074462;28;20059;-74
2023/09/26 08:30:13;;;;;;;15.57;5.68;;;;;;;27.04;100.00;100953.50;5074688;28;20060;-77
2023/09/26 08:32:40;;;;;;;11.68;5.10;;;;;;;27.82;100.00;101014.13;5069749;28;20037;-78
2023/09/26 08:35:08;;;;;;;12.55;5.40;;;;;;;26.89;100.00;100941.69;5053883;28;20124;-75
2023/09/26 08:37:34;;;;;;;13.25;5.45;;;;;;;26.95;100.00;100995.19;5053532;28;20063;-80
2023/09/26 08:40:02;;;;;;;21.98;6.55;;;;;;;27.38;100.00;100941.16;5054283;28;20602;-77
2023/09/26 08:42:28;;;;;;;12.25;4.90;;;;;;;27.93;100.00;100980.03;5069507;28;20067;-77
2023/09/26 08:44:57;;;;;;;17.83;5.15;;;;;;;27.66;100.00;100964.06;5053655;28;20029;-76
2023/09/26 08:47:24;;;;;;;16.65;5.60;;;;;;;27.47;100.00;100982.22;5051388;28;20029;-76
2023/09/26 08:49:53;;;;;;;17.60;5.38;;;;;;;27.11;100.00;100920.72;5053044;28;20025;-76
2023/09/26 08:52:20;;;;;;;17.63;5.82;;;;;;;27.13;100.00;100921.44;5053395;28;20120;-73
2023/09/26 08:54:46;;;;;;;10.18;4.78;;;;;;;27.61;100.00;100962.78;5052732;28;20021;-76
2023/09/26 08:57:12;;;;;;;12.68;4.90;;;;;;;27.75;100.00;100983.38;5053033;28;20029;-76
2023/09/26 08:59:39;;;;;;;13.27;5.10;;;;;;;27.60;100.00;100908.84;5052791;28;20025;-73
2023/09/26 09:02:05;;;;;;;15.85;5.57;;;;;;;27.73;100.00;100918.13;5053116;28;20017;-77
2023/09/26 09:04:30;;;;;;;11.68;5.45;;;;;;;27.58;100.00;100955.19;5053301;28;20037;-77
2023/09/26 09:07:04;;;;;;;14.57;4.93;;;;;;;28.55;100.00;100966.88;5053159;28;20041;-77
2023/09/26 09:09:30;;;;;;;10.75;5.15;;;;;;;28.16;100.00;100926.66;5053200;28;20025;-79
2023/09/26 09:11:56;;;;;;;12.45;4.85;;;;;;;27.92;100.00;100956.63;5053307;28;20032;-80
2023/09/26 09:14:34;;;;;;;15.60;5.53;;;;;;;28.04;100.00;100959.09;5053004;28;20036;-78
2023/09/26 09:16:59;;;;;;;12.63;4.82;;;;;;;27.93;100.00;100953.09;5052592;28;20064;-77
2023/09/26 09:19:48;;;;;;;13.18;4.97;;;;;;;27.88;100.00;100914.22;5055294;28;20056;-78
2023/09/26 09:22:18;;;;;;;13.20;4.93;;;;;;;28.08;100.00;100929.09;5064579;28;20086;-77
2023/09/26 09:24:52;;;;;;;13.30;5.40;;;;;;;27.87;100.00;100885.59;5076443;28;20028;-78
2023/09/26 09:27:31;;;;;;;18.67;4.82;;;;;;;27.58;100.00;100929.03;5093029;28;20024;-77
2023/09/26 09:30:04;;;;;;;11.85;4.90;;;;;;;29.25;100.00;100926.59;5093172;28;20028;-75
2023/09/26 09:32:30;;;;;;;11.25;5.22;;;;;;;27.89;100.00;100949.88;5098434;28;20502;-75
2023/09/26 09:34:55;;;;;;;13.52;5.30;;;;;;;28.81;100.00;100892.09;5113383;28;20027;-76
2023/09/26 09:37:21;;;;;;;13.10;5.30;;;;;;;28.80;100.00;100928.91;5113213;28;20088;-76
2023/09/26 09:39:47;;;;;;;14.73;5.18;;;;;;;28.07;100.00;100935.28;5112851;28;20174;-76
2023/09/26 09:42:12;;;;;;;11.45;4.57;;;;;;;28.22;100.00;100870.34;5109097;28;20460;-75
2023/09/26 09:44:38;;;;;;;9.85;4.32;;;;;;;29.24;100.00;100854.19;5066812;28;20039;-77
2023/09/26 09:47:04;;;;;;;11.93;4.90;;;;;;;28.94;100.00;100876.13;5091278;28;20036;-77
2023/09/26 09:49:40;;;;;;;10.85;4.50;;;;;;;29.18;100.00;100907.16;5091793;28;20028;-77
2023/09/26 09:52:09;;;;;;;11.07;4.53;;;;;;;29.43;100.00;100886.44;5074419;28;20020;-77
2023/09/26 09:54:37;;;;;;;15.52;5.03;;;;;;;29.15;100.00;100908.25;5092272;28;20119;-77
2023/09/26 09:57:10;;;;;;;10.13;4.70;;;;;;;27.79;100.00;100867.94;5092065;28;20058;-75
2023/09/26 09:59:39;;;;;;;11.88;4.97;;;;;;;28.28;100.00;100846.25;5092787;28;20065;-76
2023/09/26 10:02:05;;;;;;;13.55;5.38;;;;;;;28.81;100.00;100910.44;5092234;28;20028;-75
2023/09/26 10:04:34;;;;;;;13.18;4.97;;;;;;;28.54;100.00;100813.38;5100434;28;20046;-75
2023/09/26 10:07:00;;;;;;;15.73;5.47;;;;;;;28.96;100.00;100840.94;5112025;28;20034;-76
2023/09/26 10:09:27;;;;;;;15.18;5.35;;;;;;;29.37;100.00;100902.72;5078691;28;20028;-78
2023/09/26 10:11:54;;;;;;;13.18;5.25;;;;;;;28.52;100.00;100815.31;5072251;28;20447;-77
2023/09/26 10:14:22;;;;;;;13.15;5.28;;;;;;;28.81;100.00;100873.75;5072386;28;20028;-73
2023/09/26 10:16:48;;;;;;;15.50;5.90;;;;;;;28.43;100.00;100810.88;5080022;28;20035;-77
2023/09/26 10:19:14;;;;;;;12.60;5.38;;;;;;;28.41;100.00;100838.13;5092265;28;20491;-78
2023/09/26 10:21:41;;;;;;;14.73;5.18;;;;;;;29.59;100.00;100880.59;5091766;28;20088;-74
2023/09/26 10:24:09;;;;;;;14.70;5.07;;;;;;;29.22;100.00;100898.88;5091760;28;20035;-74
2023/09/26 10:26:40;;;;;;;15.23;5.32;;;;;;;29.59;100.00;100865.69;5092644;28;20036;-74
2023/09/26 10:29:20;;;;;;;14.43;4.75;;;;;;;28.51;100.00;100852.91;5092466;28;20052;-76
2023/09/26 10:31:54;;;;;;;12.68;4.55;;;;;;;29.16;100.00;100880.28;5091567;28;20063;-74
2023/09/26 10:34:29;;;;;;;12.60;5.10;;;;;;;28.82;100.00;100890.31;5091214;28;20512;-75
2023/09/26 10:36:56;;;;;;;11.70;4.97;;;;;;;27.89;100.00;100840.03;5074103;28;20078;-76
2023/09/26 10:39:40;;;;;;;13.82;4.78;;;;;;;28.25;100.00;100896.22;5081501;28;20028;-73
2023/09/26 10:42:16;;;;;;;11.25;4.72;;;;;;;28.35;100.00;100889.22;5100242;28;20564;-77
2023/09/26 10:44:43;;;;;;;12.38;4.72;;;;;;;28.70;100.00;100808.41;5070406;28;20143;-73
2023/09/26 10:47:13;;;;;;;11.82;4.90;;;;;;;29.07;100.00;100864.38;5089067;28;20532;-73
2023/09/26 10:49:39;;;;;;;11.63;4.50;;;;;;;29.54;100.00;100788.41;5088759;28;20059;-75
2023/09/26 10:52:08;;;;;;;13.25;5.22;;;;;;;29.12;100.00;100801.06;5089530;28;20027;-74
2023/09/26 10:54:35;;;;;;;11.88;5.18;;;;;;;28.23;100.00;100888.50;5078631;28;20028;-74
2023/09/26 10:57:01;;;;;;;13.10;4.80;;;;;;;28.61;100.00;100885.19;5089420;28;20039;-72
2023/09/26 10:59:29;;;;;;;14.83;4.83;;;;;;;29.16;100.00;100791.97;4733049;28;10000375;-72
2023/09/26 11:02:00;;;;;;;10.27;5.00;;;;;;;29.14;100.00;100809.66;5088224;28;21015;-72
2023/09/26 11:04:29;;;;;;;11.27;4.80;;;;;;;28.92;100.00;100844.00;5091351;28;20036;-73
2023/09/26 11:06:59;;;;;;;12.25;4.35;;;;;;;28.81;100.00;100824.00;5091324;28;20032;-72